Time;durP1;ratioP1;P1;durP2;ratioP2;P2;SDS_P1;SDS_P2;PMS_P1;PMS_P2;Temp;Humidity;BMP_temperature;BMP_pressure;BME280_temperature;BME280_humidity;BME280_pressure;Samples;Min_cycle;Max_cycle;Signal;HPM_P1;HPM_P2
2021/04/15 00:02:26;;;;;;;11.43;1.17;;;19.70;47.90;;;;;;20902381;28;20029;-23
2021/04/15 00:12:27;;;;;;;4.50;1.67;;;19.70;47.80;;;;;;20901468;28;20029;-21
2021/04/15 00:22:27;;;;;;;5.88;1.80;;;19.60;47.70;;;;;;20903087;28;20033;-23
2021/04/15 00:32:28;;;;;;;7.97;1.23;;;19.60;47.70;;;;;;20897143;28;20029;-23
2021/04/15 00:42:28;;;;;;;5.47;0.90;;;19.70;47.50;;;;;;20897224;28;20099;-23
2021/04/15 00:52:34;;;;;;;2.87;1.07;;;19.70;47.40;;;;;;20889564;28;20033;-23
2021/04/15 01:02:36;;;;;;;2.13;0.73;;;19.60;47.40;;;;;;20883109;28;20459;-23
2021/04/15 01:13:02;;;;;;;2.13;0.75;;;19.50;47.20;;;;;;20892589;28;20032;-23
2021/04/15 01:23:14;;;;;;;3.78;1.42;;;19.50;47.10;;;;;;20904321;28;20033;-23
2021/04/15 01:33:23;;;;;;;3.58;0.80;;;19.40;46.90;;;;;;20900946;28;20032;-22
2021/04/15 01:43:33;;;;;;;3.35;0.98;;;19.40;46.90;;;;;;20897757;28;20708;-22
2021/04/15 01:53:39;;;;;;;2.80;0.98;;;19.30;46.80;;;;;;20899499;28;20029;-23
2021/04/15 02:03:41;;;;;;;2.10;1.00;;;19.30;46.70;;;;;;20901338;28;20021;-23
2021/04/15 02:13:44;;;;;;;1.73;0.70;;;19.30;46.60;;;;;;20901933;28;20079;-23
2021/04/15 02:23:51;;;;;;;2.03;0.80;;;19.30;46.50;;;;;;20905524;28;20028;-23
2021/04/15 02:34:06;;;;;;;7.10;1.13;;;19.20;46.40;;;;;;20915705;28;20039;-23
2021/04/15 02:44:20;;;;;;;2.30;1.05;;;19.20;46.30;;;;;;20921053;28;20074;-23
2021/04/15 02:54:29;;;;;;;2.25;1.00;;;19.20;46.30;;;;;;20922260;28;20028;-23
2021/04/15 03:04:32;;;;;;;4.43;1.73;;;19.10;46.10;;;;;;20922587;28;20025;-23
2021/04/15 03:14:44;;;;;;;4.47;1.50;;;19.10;46.10;;;;;;20909195;28;20025;-23
2021/04/15 03:24:48;;;;;;;3.78;1.63;;;19.00;45.90;;;;;;20914528;28;20029;-23
2021/04/15 03:35:00;;;;;;;4.03;1.42;;;19.00;45.90;;;;;;20913489;28;20036;-23
2021/04/15 03:45:08;;;;;;;2.95;1.30;;;19.00;45.80;;;;;;20896894;28;20116;-23
2021/04/15 03:55:33;;;;;;;3.58;1.50;;;18.90;45.70;;;;;;20888404;28;20029;-23
2021/04/15 04:05:40;;;;;;;3.60;1.08;;;18.90;45.60;;;;;;20869290;28;20085;-23
2021/04/15 04:15:45;;;;;;;2.63;1.17;;;18.90;45.50;;;;;;20880053;28;20106;-23
2021/04/15 04:25:52;;;;;;;2.85;1.20;;;19.30;44.90;;;;;;20880087;28;20538;-23
2021/04/15 04:35:56;;;;;;;4.00;1.20;;;20.20;42.80;;;;;;20878474;28;20033;-22
2021/04/15 04:46:04;;;;;;;3.20;1.35;;;21.10;40.60;;;;;;20875698;28;20063;-23
2021/04/15 04:56:13;;;;;;;4.17;1.13;;;21.90;38.90;;;;;;20896070;28;20078;-23
2021/04/15 05:06:23;;;;;;;1.52;0.82;;;22.50;37.80;;;;;;20881090;28;20064;-23
2021/04/15 05:16:28;;;;;;;3.58;1.27;;;22.20;38.00;;;;;;20866668;28;20623;-23
2021/04/15 05:26:34;;;;;;;9.20;1.52;;;21.70;38.60;;;;;;20893723;28;20054;-23
2021/04/15 05:36:39;;;;;;;3.33;1.48;;;21.50;39.00;;;;;;20884659;28;20112;-23
2021/04/15 05:46:46;;;;;;;8.70;1.58;;;21.20;39.40;;;;;;20892403;28;20036;-23
2021/04/15 05:57:09;;;;;;;8.68;2.40;;;20.90;40.00;;;;;;20878351;28;20037;-23
2021/04/15 06:07:22;;;;;;;7.22;1.73;;;21.00;40.20;;;;;;20874151;28;20037;-23
2021/04/15 06:18:02;;;;;;;7.60;2.08;;;21.10;40.20;;;;;;20898170;28;20033;-23
2021/04/15 06:28:06;;;;;;;8.13;2.57;;;21.10;40.30;;;;;;20861963;28;20503;-23
2021/04/15 06:38:20;;;;;;;8.52;2.78;;;21.20;40.30;;;;;;20902036;28;20542;-23
2021/04/15 06:48:31;;;;;;;7.35;2.50;;;21.10;40.60;;;;;;20898322;28;20032;-23
2021/04/15 06:58:51;;;;;;;11.23;2.70;;;21.20;40.40;;;;;;20897164;28;20111;-22
2021/04/15 07:09:34;;;;;;;4.55;2.13;;;21.10;41.00;;;;;;20899882;28;20060;-24
2021/04/15 07:20:00;;;;;;;10.52;2.47;;;21.00;41.00;;;;;;20648638;28;20034;-22
2021/04/15 07:30:24;;;;;;;5.03;2.20;;;20.80;42.00;;;;;;20659039;28;20035;-23
2021/04/15 07:41:01;;;;;;;7.25;2.38;;;20.60;42.50;;;;;;20655310;28;20054;-23
2021/04/15 07:51:39;;;;;;;9.77;2.20;;;20.60;42.80;;;;;;20747358;28;20044;-22
2021/04/15 08:01:53;;;;;;;6.57;2.33;;;20.30;43.40;;;;;;20910301;28;20025;-23
2021/04/15 08:12:24;;;;;;;15.57;2.47;;;20.20;43.70;;;;;;20911566;28;20033;-24
2021/04/15 08:23:02;;;;;;;7.93;2.33;;;20.10;43.90;;;;;;20908166;28;20483;-22
2021/04/15 08:33:17;;;;;;;7.63;1.85;;;20.10;44.10;;;;;;20907873;28;20569;-23
2021/04/15 08:43:21;;;;;;;5.70;1.65;;;20.00;44.20;;;;;;20908170;28;20025;-23
2021/04/15 08:53:39;;;;;;;7.95;1.88;;;19.90;44.40;;;;;;20907330;28;20025;-23
2021/04/15 09:04:03;;;;;;;8.68;2.72;;;19.90;44.60;;;;;;20898549;28;20029;-23
2021/04/15 09:14:45;;;;;;;7.75;1.88;;;19.80;44.70;;;;;;20889794;28;20037;-23
2021/04/15 09:24:57;;;;;;;6.88;1.73;;;19.90;44.60;;;;;;20879625;28;20143;-23
2021/04/15 09:35:10;;;;;;;5.68;1.70;;;19.80;44.90;;;;;;20884926;28;20020;-23
2021/04/15 09:45:13;;;;;;;5.72;2.20;;;19.80;44.80;;;;;;20882108;28;20109;-23
2021/04/15 09:55:23;;;;;;;9.70;1.85;;;19.80;44.80;;;;;;20870813;28;20030;-22
2021/04/15 10:05:48;;;;;;;9.10;1.60;;;19.80;45.20;;;;;;20844795;28;20041;-23
2021/04/15 10:15:55;;;;;;;7.88;1.60;;;19.60;44.70;;;;;;20874840;28;20728;-23
2021/04/15 10:26:18;;;;;;;5.90;1.58;;;19.70;44.90;;;;;;20885772;28;20087;-23
2021/04/15 10:36:18;;;;;;;12.07;2.55;;;19.70;45.70;;;;;;20870189;28;20040;-23
2021/04/15 10:46:39;;;;;;;4.00;1.27;;;19.70;45.40;;;;;;20880963;28;20025;-23
2021/04/15 10:56:45;;;;;;;4.95;1.73;;;19.70;45.80;;;;;;20898233;28;20049;-23
2021/04/15 11:06:55;;;;;;;14.40;1.95;;;19.70;46.00;;;;;;20861772;28;20037;-23
2021/04/15 11:16:57;;;;;;;29.33;5.40;;;19.60;46.50;;;;;;20882503;28;20035;-23
2021/04/15 11:27:00;;;;;;;16.20;2.50;;;19.60;45.70;;;;;;20916901;28;20087;-23
2021/04/15 11:37:08;;;;;;;12.55;1.88;;;19.50;45.90;;;;;;20912539;28;20037;-23
2021/04/15 11:47:25;;;;;;;10.27;3.67;;;19.50;46.00;;;;;;20908970;28;20507;-23
2021/04/15 11:57:33;;;;;;;5.35;1.40;;;19.40;45.90;;;;;;20909206;28;20025;-24
2021/04/15 12:07:34;;;;;;;5.65;1.73;;;19.20;45.90;;;;;;20911758;28;20055;-23
2021/04/15 12:17:57;;;;;;;9.63;1.70;;;19.20;46.10;;;;;;20909487;28;20029;-23
2021/04/15 12:28:15;;;;;;;10.13;2.63;;;19.10;45.90;;;;;;20907502;28;20024;-23
2021/04/15 12:38:48;;;;;;;6.20;1.93;;;19.10;45.90;;;;;;20906692;28;20082;-23
2021/04/15 12:48:50;;;;;;;4.93;1.50;;;19.20;45.80;;;;;;20905065;28;20495;-23
2021/04/15 12:58:54;;;;;;;6.88;1.23;;;19.10;45.80;;;;;;20912590;28;20111;-24
2021/04/15 13:08:56;;;;;;;9.50;1.55;;;19.00;45.80;;;;;;20906583;28;20394;-23
2021/04/15 13:18:56;;;;;;;4.80;1.73;;;19.00;45.70;;;;;;20905887;28;20550;-23
2021/04/15 13:29:13;;;;;;;3.92;1.10;;;19.00;45.70;;;;;;20905615;28;20440;-23
2021/04/15 13:39:29;;;;;;;5.85;1.20;;;19.00;45.80;;;;;;20904852;28;20067;-23
2021/04/15 13:49:37;;;;;;;6.90;1.45;;;18.90;45.70;;;;;;20904715;28;20029;-23
2021/04/15 13:59:56;;;;;;;3.47;1.40;;;18.90;45.70;;;;;;20903622;28;20053;-23
2021/04/15 14:10:17;;;;;;;2.65;0.88;;;18.90;45.70;;;;;;20936710;28;20049;-23
2021/04/15 14:20:34;;;;;;;3.13;1.17;;;18.90;45.60;;;;;;20923119;28;20113;-23
2021/04/15 14:30:36;;;;;;;4.00;0.75;;;18.80;45.70;;;;;;20934922;28;20583;-23
2021/04/15 14:40:41;;;;;;;3.20;1.25;;;18.80;45.70;;;;;;20890058;28;20508;-23
2021/04/15 14:50:43;;;;;;;3.80;0.70;;;18.80;45.70;;;;;;20900281;28;20087;-23
2021/04/15 15:00:48;;;;;;;2.75;0.82;;;18.80;45.60;;;;;;20892077;28;20025;-23
2021/04/15 15:10:54;;;;;;;2.20;0.68;;;18.80;45.70;;;;;;20887244;28;20128;-23
2021/04/15 15:20:58;;;;;;;3.45;1.08;;;18.80;45.70;;;;;;20883873;28;20048;-23
2021/04/15 15:31:15;;;;;;;2.03;0.57;;;18.80;45.70;;;;;;20887510;28;20446;-23
2021/04/15 15:41:22;;;;;;;1.65;0.60;;;18.70;45.60;;;;;;20895515;28;20044;-23
2021/04/15 15:51:31;;;;;;;5.68;1.08;;;18.80;45.40;;;;;;20897077;28;20426;-23
2021/04/15 16:01:32;;;;;;;2.65;0.80;;;19.30;44.30;;;;;;20900132;28;20032;-23
2021/04/15 16:11:55;;;;;;;1.20;0.50;;;19.90;42.40;;;;;;20899605;28;20033;-23
2021/04/15 16:21:56;;;;;;;2.83;0.60;;;20.70;40.30;;;;;;20902840;28;20110;-23
2021/04/15 16:31:57;;;;;;;2.55;0.45;;;21.50;38.40;;;;;;20911721;28;20025;-23
2021/04/15 16:41:59;;;;;;;0.88;0.47;;;21.70;38.70;;;;;;20898769;28;20107;-23
2021/04/15 16:52:01;;;;;;;5.47;1.60;;;22.10;38.60;;;;;;20928079;28;20033;-23
2021/04/15 17:02:03;;;;;;;3.03;0.82;;;22.50;38.10;;;;;;20937706;28;20025;-23
2021/04/15 17:12:05;;;;;;;6.35;1.08;;;22.50;38.90;;;;;;20944554;28;20060;-25
2021/04/15 17:22:06;;;;;;;3.25;0.90;;;22.90;38.50;;;;;;20933209;28;20439;-23
2021/04/15 17:32:06;;;;;;;13.80;1.15;;;23.40;38.10;;;;;;20925272;28;20032;-24
2021/04/15 17:42:08;;;;;;;5.22;1.08;;;23.90;37.70;;;;;;20928519;28;20028;-23
2021/04/15 17:52:08;;;;;;;7.15;1.27;;;23.60;38.20;;;;;;20894252;28;20031;-24
2021/04/15 18:02:10;;;;;;;3.80;0.93;;;23.20;38.80;;;;;;20913569;28;20451;-24
2021/04/15 18:12:11;;;;;;;11.95;1.52;;;23.10;38.80;;;;;;20909316;28;20630;-23
2021/04/15 18:22:11;;;;;;;9.60;0.60;;;23.10;38.90;;;;;;20904018;28;20056;-24
2021/04/15 18:32:14;;;;;;;7.25;1.08;;;23.00;39.00;;;;;;20893040;28;20029;-24
2021/04/15 18:42:14;;;;;;;7.78;1.20;;;23.00;39.20;;;;;;20875286;28;20079;-23
2021/04/15 18:52:15;;;;;;;7.10;1.97;;;23.10;39.30;;;;;;20882278;28;20028;-23
2021/04/15 19:02:16;;;;;;;5.00;1.60;;;23.30;39.00;;;;;;20859728;28;20853;-23
2021/04/15 19:12:16;;;;;;;4.03;1.00;;;23.50;38.80;;;;;;20893969;28;20287;-22
2021/04/15 19:22:17;;;;;;;5.35;1.13;;;23.40;38.80;;;;;;20913228;28;20024;-22
2021/04/15 19:32:17;;;;;;;4.57;0.75;;;23.20;39.30;;;;;;20908301;28;20025;-22
2021/04/15 19:42:18;;;;;;;6.05;1.02;;;23.00;39.50;;;;;;20890944;28;20551;-22
2021/04/15 19:52:19;;;;;;;2.10;0.60;;;23.00;39.70;;;;;;20881574;28;20060;-23
2021/04/15 20:02:20;;;;;;;2.65;1.08;;;22.60;40.40;;;;;;20889134;28;20030;-23
2021/04/15 20:12:20;;;;;;;2.38;0.70;;;22.20;41.00;;;;;;20880125;28;20033;-23
2021/04/15 20:22:21;;;;;;;5.50;0.80;;;22.10;41.50;;;;;;20900240;28;20110;-22
2021/04/15 20:32:22;;;;;;;1.63;0.52;;;21.60;42.00;;;;;;20882467;28;20101;-23
2021/04/15 20:42:23;;;;;;;5.65;0.50;;;21.30;42.50;;;;;;20870799;28;20026;-23
2021/04/15 20:52:24;;;;;;;1.63;0.50;;;21.00;42.90;;;;;;20890415;28;20034;-23
2021/04/15 21:02:24;;;;;;;1.85;0.52;;;21.00;42.90;;;;;;20904844;28;20037;-23
2021/04/15 21:12:25;;;;;;;3.30;0.60;;;20.90;43.20;;;;;;20895974;28;20053;-23
2021/04/15 21:22:26;;;;;;;17.80;2.25;;;20.60;43.40;;;;;;20909547;28;20613;-23
2021/04/15 21:32:26;;;;;;;9.63;1.50;;;20.60;43.40;;;;;;20896411;28;20117;-23
2021/04/15 21:42:27;;;;;;;22.73;3.25;;;20.40;43.50;;;;;;20885488;28;20032;-23
2021/04/15 21:52:27;;;;;;;6.65;1.35;;;20.30;43.50;;;;;;20864524;28;20029;-23
2021/04/15 22:02:28;;;;;;;11.98;2.60;;;20.20;43.50;;;;;;20886484;28;20076;-23
2021/04/15 22:12:28;;;;;;;10.65;1.65;;;20.10;43.60;;;;;;20894970;28;20096;-23
2021/04/15 22:22:30;;;;;;;9.03;1.50;;;20.00;43.70;;;;;;20895465;28;20373;-23
2021/04/15 22:32:31;;;;;;;9.40;1.27;;;20.00;43.80;;;;;;20901177;28;20471;-23
2021/04/15 22:42:31;;;;;;;7.50;1.63;;;19.90;43.80;;;;;;20900000;28;20036;-23
2021/04/15 22:52:32;;;;;;;14.63;1.20;;;19.80;43.90;;;;;;20915181;28;20017;-23
2021/04/15 23:02:33;;;;;;;6.38;1.58;;;19.70;44.00;;;;;;20916650;28;20111;-23
2021/04/15 23:12:33;;;;;;;3.42;0.73;;;19.60;44.10;;;;;;20914602;28;20075;-23
2021/04/15 23:22:34;;;;;;;8.18;1.38;;;19.50;44.00;;;;;;20914427;28;20449;-23
2021/04/15 23:32:34;;;;;;;4.55;0.63;;;19.50;44.00;;;;;;20913406;28;20041;-23
2021/04/15 23:42:35;;;;;;;6.43;1.45;;;19.40;43.80;;;;;;20913221;28;20021;-23
2021/04/15 23:52:35;;;;;;;6.47;1.00;;;19.40;43.80;;;;;;20912327;28;20098;-23
